createdAt,value
2022-10-21T00:02:09.850Z,5.97
2022-10-21T00:04:41.667Z,6.17
2022-10-21T00:07:13.530Z,7.03
2022-10-21T00:09:45.229Z,6.43
2022-10-21T00:12:16.979Z,6.47
2022-10-21T00:14:49.999Z,6.37
2022-10-21T00:17:22.460Z,6.80
2022-10-21T00:19:54.177Z,6.90
2022-10-21T00:22:25.896Z,8.40
2022-10-21T00:24:57.828Z,6.33
2022-10-21T00:27:29.808Z,6.27
2022-10-21T00:30:02.106Z,6.57
2022-10-21T00:32:34.236Z,6.47
2022-10-21T00:35:06.324Z,5.60
2022-10-21T00:37:38.382Z,5.40
2022-10-21T00:40:10.718Z,6.77
2022-10-21T00:42:46.396Z,6.77
2022-10-21T00:45:22.786Z,6.50
2022-10-21T00:47:58.815Z,6.27
2022-10-21T00:50:45.187Z,6.40
2022-10-21T00:53:18.387Z,6.53
2022-10-21T00:55:58.205Z,6.17
2022-10-21T00:58:32.292Z,6.70
2022-10-21T01:01:06.148Z,6.70
2022-10-21T01:03:37.949Z,7.07
2022-10-21T01:06:12.637Z,7.00
2022-10-21T01:08:44.492Z,6.20
2022-10-21T01:11:18.520Z,6.70
2022-10-21T01:13:53.327Z,7.27
2022-10-21T01:16:41.221Z,6.40
2022-10-21T01:19:42.408Z,7.63
2022-10-21T01:22:38.560Z,6.47
2022-10-21T01:25:33.480Z,6.40
2022-10-21T01:28:39.840Z,6.47
2022-10-21T01:31:25.429Z,6.30
2022-10-21T01:34:11.047Z,6.07
2022-10-21T01:37:15.223Z,6.80
2022-10-21T01:39:55.176Z,6.87
2022-10-21T01:42:39.882Z,6.60
2022-10-21T01:45:25.074Z,6.90
2022-10-21T01:48:03.013Z,7.33
2022-10-21T01:50:55.258Z,7.43
2022-10-21T01:53:30.590Z,6.57
2022-10-21T01:56:03.753Z,6.57
2022-10-21T01:58:39.292Z,6.63
2022-10-21T02:01:12.885Z,6.20
2022-10-21T02:03:48.664Z,7.10
2022-10-21T02:06:20.585Z,6.90
2022-10-21T02:08:52.796Z,7.47
2022-10-21T02:11:25.166Z,6.17
2022-10-21T02:14:02.628Z,6.77
2022-10-21T02:16:38.737Z,6.87
2022-10-21T02:19:19.893Z,6.70
2022-10-21T02:21:53.457Z,6.57
2022-10-21T02:24:52.449Z,5.90
2022-10-21T02:27:24.859Z,6.67
2022-10-21T02:29:59.758Z,6.57
2022-10-21T02:32:42.365Z,6.80
2022-10-21T02:35:20.489Z,6.33
2022-10-21T02:38:05.960Z,6.30
2022-10-21T02:40:44.328Z,6.20
2022-10-21T02:43:24.642Z,5.90
2022-10-21T02:46:01.634Z,6.10
2022-10-21T02:48:34.659Z,6.33
2022-10-21T02:51:07.945Z,6.83
2022-10-21T02:53:39.782Z,6.03
2022-10-21T02:56:11.612Z,6.63
2022-10-21T02:58:43.501Z,6.70
2022-10-21T03:01:15.490Z,6.53
2022-10-21T03:03:47.443Z,6.40
2022-10-21T03:06:19.353Z,6.47
2022-10-21T03:08:51.166Z,6.50
2022-10-21T03:11:23.044Z,6.27
2022-10-21T03:13:54.786Z,6.80
2022-10-21T03:16:26.511Z,5.50
2022-10-21T03:18:58.311Z,5.57
2022-10-21T03:21:30.081Z,5.90
2022-10-21T03:24:02.188Z,5.87
2022-10-21T03:26:33.930Z,6.53
2022-10-21T03:29:05.654Z,6.63
2022-10-21T03:31:37.390Z,6.00
2022-10-21T03:34:09.138Z,6.93
2022-10-21T03:36:40.884Z,5.97
2022-10-21T03:39:12.919Z,6.53
2022-10-21T03:41:44.643Z,7.17
2022-10-21T03:44:16.368Z,6.77
2022-10-21T03:46:48.091Z,6.47
2022-10-21T03:49:21.304Z,6.77
2022-10-21T03:51:53.580Z,6.93
2022-10-21T03:54:25.341Z,6.50
2022-10-21T03:56:57.352Z,6.43
2022-10-21T03:59:29.165Z,6.83
2022-10-21T04:02:01.122Z,7.00
2022-10-21T04:04:32.975Z,6.90
2022-10-21T04:07:04.832Z,7.13
2022-10-21T04:09:36.553Z,6.70
2022-10-21T04:12:08.303Z,7.07
2022-10-21T04:14:40.087Z,7.47
2022-10-21T04:17:12.996Z,7.27
2022-10-21T04:19:44.748Z,6.27
2022-10-21T04:22:16.476Z,7.47
2022-10-21T04:24:48.225Z,7.47
2022-10-21T04:27:19.959Z,6.93
2022-10-21T04:29:51.729Z,6.53
2022-10-21T04:32:23.502Z,6.00
2022-10-21T04:34:55.286Z,7.07
2022-10-21T04:37:27.030Z,7.13
2022-10-21T04:39:58.739Z,7.13
2022-10-21T04:42:30.462Z,8.13
2022-10-21T04:45:02.458Z,6.87
2022-10-21T04:47:34.201Z,6.77
2022-10-21T04:50:06.206Z,6.77
2022-10-21T04:52:38.298Z,6.07
2022-10-21T04:55:10.453Z,6.50
2022-10-21T04:57:42.767Z,6.47
2022-10-21T05:00:14.817Z,6.43
2022-10-21T05:02:46.533Z,7.17
2022-10-21T05:05:18.277Z,6.43
2022-10-21T05:07:50.052Z,5.63
2022-10-21T05:10:22.423Z,6.63
2022-10-21T05:12:54.182Z,7.17
2022-10-21T05:15:26.729Z,6.30
2022-10-21T05:17:58.467Z,6.73
2022-10-21T05:20:30.348Z,7.30
2022-10-21T05:23:02.064Z,6.53
2022-10-21T05:25:34.518Z,5.90
2022-10-21T05:28:06.337Z,7.30
2022-10-21T05:30:38.287Z,6.37
2022-10-21T05:33:10.543Z,6.90
2022-10-21T05:35:42.643Z,6.43
2022-10-21T05:38:14.366Z,6.17
2022-10-21T05:40:46.117Z,6.37
2022-10-21T05:43:17.844Z,6.30
2022-10-21T05:45:49.590Z,6.20
2022-10-21T05:48:21.498Z,5.60
2022-10-21T05:50:54.674Z,6.97
2022-10-21T05:53:26.661Z,6.90
2022-10-21T05:56:02.859Z,7.07
2022-10-21T05:58:35.607Z,5.73
2022-10-21T06:01:07.503Z,5.43
2022-10-21T06:03:39.304Z,5.40
2022-10-21T06:06:11.255Z,6.10
2022-10-21T06:08:43.055Z,6.20
2022-10-21T06:11:17.498Z,6.63
2022-10-21T06:13:49.285Z,6.33
2022-10-21T06:16:21.021Z,6.87
2022-10-21T06:18:52.841Z,6.10
2022-10-21T06:21:24.553Z,6.83
2022-10-21T06:23:56.343Z,6.17
2022-10-21T06:26:29.982Z,5.73
2022-10-21T06:29:02.770Z,6.93
2022-10-21T06:31:34.533Z,6.87
2022-10-21T06:34:06.275Z,5.77
2022-10-21T06:36:41.071Z,7.23
2022-10-21T06:39:12.783Z,6.10
2022-10-21T06:41:44.522Z,6.33
2022-10-21T06:44:20.840Z,6.67
2022-10-21T06:46:54.087Z,6.73
2022-10-21T06:49:25.847Z,6.80
2022-10-21T06:51:57.581Z,6.30
2022-10-21T06:54:29.757Z,6.13
2022-10-21T06:57:01.483Z,6.70
2022-10-21T06:59:33.314Z,6.20
2022-10-21T07:02:05.076Z,7.10
2022-10-21T07:04:36.792Z,6.27
2022-10-21T07:07:08.518Z,6.07
2022-10-21T07:09:40.314Z,6.77
2022-10-21T07:12:12.164Z,6.67
2022-10-21T07:14:43.879Z,10.97
2022-10-21T07:17:15.892Z,6.93
2022-10-21T07:19:47.606Z,6.83
2022-10-21T07:22:19.474Z,7.87
2022-10-21T07:24:51.245Z,7.67
2022-10-21T07:27:23.007Z,6.23
2022-10-21T07:29:54.776Z,6.40
2022-10-21T07:32:26.520Z,6.20
2022-10-21T07:34:58.277Z,6.00
2022-10-21T07:37:29.992Z,5.83
2022-10-21T07:40:01.842Z,6.83
2022-10-21T07:42:33.652Z,6.90
2022-10-21T07:45:05.731Z,8.03
2022-10-21T07:47:37.827Z,7.73
2022-10-21T07:50:10.047Z,7.03
2022-10-21T07:52:51.885Z,6.20
2022-10-21T07:55:32.403Z,7.77
2022-10-21T07:58:05.072Z,7.87
2022-10-21T08:00:36.901Z,6.20
2022-10-21T08:03:11.093Z,6.07
2022-10-21T08:05:42.898Z,5.60
2022-10-21T08:08:14.644Z,7.10
2022-10-21T08:10:46.397Z,5.63
2022-10-21T08:13:19.053Z,5.43
2022-10-21T08:15:53.216Z,6.73
2022-10-21T08:18:26.228Z,5.47
2022-10-21T08:20:57.975Z,6.80
2022-10-21T08:23:29.710Z,7.10
2022-10-21T08:26:01.580Z,6.30
2022-10-21T08:28:33.325Z,6.93
2022-10-21T08:31:11.244Z,5.93
2022-10-21T08:33:43.562Z,5.93
2022-10-21T08:36:18.030Z,6.00
2022-10-21T08:38:49.961Z,5.63
2022-10-21T08:41:30.574Z,5.53
2022-10-21T08:44:11.321Z,6.27
2022-10-21T08:46:49.619Z,6.37
2022-10-21T08:49:52.385Z,5.80
2022-10-21T08:52:38.791Z,5.33
2022-10-21T08:55:33.022Z,5.67
2022-10-21T08:58:06.052Z,4.97
2022-10-21T09:00:47.966Z,5.33
2022-10-21T09:03:43.608Z,5.50
2022-10-21T09:06:30.255Z,5.60
2022-10-21T09:09:32.489Z,5.40
2022-10-21T09:12:27.022Z,6.27
2022-10-21T09:15:17.455Z,6.17
2022-10-21T09:17:58.022Z,5.47
2022-10-21T09:20:50.144Z,5.37
2022-10-21T09:23:40.165Z,6.20
2022-10-21T09:26:26.585Z,5.53
2022-10-21T09:29:18.757Z,5.63
2022-10-21T09:31:56.071Z,5.53
2022-10-21T09:34:27.949Z,5.43
2022-10-21T09:37:01.132Z,5.57
2022-10-21T09:39:48.505Z,5.53
2022-10-21T09:42:42.358Z,4.97
2022-10-21T09:45:36.833Z,6.07
2022-10-21T09:48:17.794Z,5.27
2022-10-21T09:51:09.881Z,4.77
2022-10-21T09:53:54.109Z,5.67
2022-10-21T09:56:35.818Z,5.27
2022-10-21T09:59:11.608Z,9.77
2022-10-21T10:01:44.395Z,4.67
2022-10-21T10:04:29.030Z,4.87
2022-10-21T10:07:22.023Z,5.27
2022-10-21T10:09:53.871Z,4.63
2022-10-21T10:12:27.298Z,5.20
2022-10-21T10:15:26.885Z,4.97
2022-10-21T10:18:01.548Z,4.83
2022-10-21T10:20:33.297Z,5.33
2022-10-21T10:23:04.994Z,5.80
2022-10-21T10:25:39.332Z,4.83
2022-10-21T10:28:11.028Z,8.57
2022-10-21T10:30:42.717Z,5.43
2022-10-21T10:33:31.347Z,4.97
2022-10-21T10:36:09.353Z,5.87
2022-10-21T10:38:45.104Z,5.13
2022-10-21T10:41:18.411Z,4.93
2022-10-21T10:43:55.118Z,4.77
2022-10-21T10:46:34.801Z,5.10
2022-10-21T10:49:15.689Z,5.10
2022-10-21T10:52:07.320Z,5.50
2022-10-21T10:54:40.713Z,4.70
2022-10-21T10:57:20.620Z,5.03
2022-10-21T10:59:56.893Z,4.60
2022-10-21T11:02:43.602Z,5.73
2022-10-21T11:05:24.649Z,5.30
2022-10-21T11:08:00.742Z,4.90
2022-10-21T11:10:44.837Z,4.93
2022-10-21T11:13:21.782Z,5.33
2022-10-21T11:16:24.487Z,5.23
2022-10-21T11:18:59.065Z,4.90
2022-10-21T11:21:49.513Z,5.47
2022-10-21T11:24:53.802Z,5.93
2022-10-21T11:27:53.853Z,5.63
2022-10-21T11:30:49.586Z,5.10
2022-10-21T11:33:49.773Z,5.90
2022-10-21T11:36:39.987Z,5.07
2022-10-21T11:39:43.002Z,5.43
2022-10-21T11:42:26.808Z,5.13
2022-10-21T11:45:21.884Z,5.87
2022-10-21T11:48:00.585Z,5.17
2022-10-21T11:50:59.521Z,5.60
2022-10-21T11:54:10.728Z,5.83
2022-10-21T11:56:59.805Z,5.27
2022-10-21T11:59:34.385Z,5.93
2022-10-21T12:02:17.605Z,5.63
2022-10-21T12:04:49.272Z,6.07
2022-10-21T12:07:46.699Z,5.63
2022-10-21T12:10:36.811Z,5.13
2022-10-21T12:13:23.036Z,5.10
2022-10-21T12:15:59.109Z,5.27
2022-10-21T12:18:31.226Z,5.40
2022-10-21T12:21:03.280Z,5.30
2022-10-21T12:23:35.205Z,5.77
2022-10-21T12:26:23.746Z,6.47
2022-10-21T12:28:59.062Z,5.93
2022-10-21T12:31:53.825Z,6.10
2022-10-21T12:34:25.790Z,6.70
2022-10-21T12:36:57.844Z,5.40
2022-10-21T12:39:35.637Z,5.60
2022-10-21T12:42:15.917Z,6.03
2022-10-21T12:44:52.367Z,5.87
2022-10-21T12:47:25.975Z,6.07
2022-10-21T12:50:26.086Z,5.90
2022-10-21T12:53:04.052Z,5.90
2022-10-21T12:55:41.016Z,5.30
2022-10-21T12:58:36.711Z,4.80
2022-10-21T13:01:34.491Z,5.10
2022-10-21T13:04:32.217Z,5.00
2022-10-21T13:07:15.874Z,4.83
2022-10-21T13:09:50.863Z,5.63
2022-10-21T13:12:25.485Z,6.63
2022-10-21T13:15:05.517Z,4.87
2022-10-21T13:17:53.654Z,5.03
2022-10-21T13:20:25.400Z,5.30
2022-10-21T13:23:31.784Z,5.17
2022-10-21T13:26:14.117Z,5.13
2022-10-21T13:29:01.821Z,5.30
2022-10-21T13:31:34.104Z,5.30
2022-10-21T13:34:06.530Z,5.20
2022-10-21T13:36:42.903Z,4.90
2022-10-21T13:39:41.789Z,5.03
2022-10-21T13:42:17.303Z,5.63
2022-10-21T13:45:07.217Z,4.77
2022-10-21T13:47:39.338Z,6.00
2022-10-21T13:50:25.986Z,4.93
2022-10-21T13:52:58.647Z,5.50
2022-10-21T13:55:30.400Z,5.43
2022-10-21T13:58:02.184Z,5.10
2022-10-21T14:00:33.916Z,5.17
2022-10-21T14:03:06.257Z,5.00
2022-10-21T14:05:46.928Z,4.63
2022-10-21T14:08:43.435Z,5.57
2022-10-21T14:11:20.139Z,5.27
2022-10-21T14:13:52.043Z,4.73
2022-10-21T14:16:37.492Z,5.20
2022-10-21T14:19:22.560Z,6.00
2022-10-21T14:21:57.295Z,4.80
2022-10-21T14:24:47.735Z,5.60
2022-10-21T14:27:33.279Z,5.77
2022-10-21T14:30:07.396Z,5.30
2022-10-21T14:32:39.442Z,5.47
2022-10-21T14:35:11.346Z,5.60
2022-10-21T14:37:52.290Z,4.93
2022-10-21T14:40:32.050Z,5.47
2022-10-21T14:43:13.383Z,5.53
2022-10-21T14:45:53.348Z,6.37
2022-10-21T14:48:34.326Z,6.00
2022-10-21T14:51:15.305Z,5.97
2022-10-21T14:53:54.843Z,5.77
2022-10-21T14:56:33.991Z,6.17
2022-10-21T14:59:28.476Z,6.03
2022-10-21T15:02:01.115Z,5.33
2022-10-21T15:04:53.909Z,5.77
2022-10-21T15:07:39.616Z,5.83
2022-10-21T15:10:20.622Z,5.40
2022-10-21T15:12:53.444Z,5.23
2022-10-21T15:15:40.516Z,5.80
2022-10-21T15:18:26.002Z,5.73
2022-10-21T15:21:02.406Z,5.80
2022-10-21T15:23:35.905Z,6.27
2022-10-21T15:26:20.980Z,5.43
2022-10-21T15:28:54.139Z,5.53
2022-10-21T15:31:28.769Z,5.70
2022-10-21T15:34:00.481Z,5.63
2022-10-21T15:36:32.245Z,6.00
2022-10-21T15:39:06.784Z,5.73
2022-10-21T15:41:41.271Z,5.77
2022-10-21T15:44:26.640Z,5.77
2022-10-21T15:47:01.225Z,5.70
2022-10-21T15:49:36.497Z,5.90
2022-10-21T15:52:08.773Z,6.10
2022-10-21T15:54:40.806Z,5.37
2022-10-21T15:57:20.953Z,5.90
2022-10-21T15:59:52.720Z,6.37
2022-10-21T16:02:24.516Z,6.47
2022-10-21T16:04:56.289Z,6.40
2022-10-21T16:07:36.922Z,7.07
2022-10-21T16:10:22.238Z,6.30
2022-10-21T16:12:54.985Z,6.07
2022-10-21T16:15:26.893Z,6.20
2022-10-21T16:17:59.061Z,5.23
2022-10-21T16:20:32.353Z,5.97
2022-10-21T16:23:04.134Z,5.93
2022-10-21T16:25:35.877Z,5.30
2022-10-21T16:28:07.894Z,5.70
2022-10-21T16:30:39.813Z,6.03
2022-10-21T16:33:11.620Z,6.30
2022-10-21T16:35:48.466Z,6.50
2022-10-21T16:40:56.794Z,6.90
2022-10-21T16:43:28.479Z,6.07
2022-10-21T16:46:00.189Z,6.97
2022-10-21T16:48:32.014Z,6.93
2022-10-21T16:51:03.816Z,6.20
2022-10-21T16:53:35.542Z,6.70
2022-10-21T16:56:07.905Z,7.33
2022-10-21T16:58:39.668Z,6.60
2022-10-21T17:01:16.046Z,7.20
2022-10-21T17:03:47.981Z,6.83
2022-10-21T17:06:22.857Z,7.30
2022-10-21T17:08:55.789Z,6.70
2022-10-21T17:11:37.053Z,7.10
2022-10-21T17:14:14.577Z,7.10
2022-10-21T17:16:46.682Z,8.00
2022-10-21T17:19:18.400Z,7.43
2022-10-21T17:21:50.207Z,8.53
2022-10-21T17:24:22.097Z,7.37
2022-10-21T17:26:56.093Z,7.50
2022-10-21T17:29:27.830Z,7.87
2022-10-21T17:31:59.547Z,7.37
2022-10-21T17:34:34.694Z,7.53
2022-10-21T17:37:08.303Z,7.30
2022-10-21T17:39:40.870Z,7.87
2022-10-21T17:42:19.252Z,7.80
2022-10-21T17:44:50.953Z,7.20
2022-10-21T17:47:22.666Z,7.63
2022-10-21T17:49:54.375Z,7.90
2022-10-21T17:52:26.081Z,8.07
2022-10-21T17:54:57.806Z,8.47
2022-10-21T17:57:32.953Z,7.57
2022-10-21T18:00:05.363Z,7.43
2022-10-21T18:02:37.743Z,8.20
2022-10-21T18:05:10.730Z,7.50
2022-10-21T18:07:42.569Z,8.20
2022-10-21T18:10:14.408Z,7.87
2022-10-21T18:12:46.206Z,8.30
2022-10-21T18:15:18.068Z,7.83
2022-10-21T18:17:49.844Z,7.90
2022-10-21T18:20:21.581Z,8.17
2022-10-21T18:22:53.348Z,8.00
2022-10-21T18:25:25.054Z,7.70
2022-10-21T18:27:56.769Z,7.77
2022-10-21T18:30:28.484Z,9.20
2022-10-21T18:33:00.419Z,9.13
2022-10-21T18:35:32.184Z,8.87
2022-10-21T18:38:04.160Z,8.50
2022-10-21T18:40:39.578Z,9.07
2022-10-21T18:43:13.354Z,8.43
2022-10-21T18:45:45.979Z,8.40
2022-10-21T18:48:17.795Z,9.53
2022-10-21T18:50:49.513Z,7.93
2022-10-21T18:53:21.508Z,8.60
2022-10-21T18:55:53.224Z,9.23
2022-10-21T18:58:25.003Z,8.00
2022-10-21T19:00:56.757Z,9.23
2022-10-21T19:03:28.550Z,8.83
2022-10-21T19:06:38.214Z,10.97
2022-10-21T19:09:22.515Z,8.93
2022-10-21T19:11:54.337Z,9.17
2022-10-21T19:14:26.049Z,8.20
2022-10-21T19:16:57.767Z,9.10
2022-10-21T19:19:29.537Z,8.50
2022-10-21T19:22:01.433Z,10.00
2022-10-21T19:24:33.230Z,9.00
2022-10-21T19:27:05.390Z,9.07
2022-10-21T19:29:37.216Z,8.57
2022-10-21T19:32:09.224Z,9.23
2022-10-21T19:34:41.061Z,8.87
2022-10-21T19:37:13.277Z,9.40
2022-10-21T19:39:44.986Z,9.47
2022-10-21T19:42:16.683Z,8.63
2022-10-21T19:44:48.526Z,8.73
2022-10-21T19:47:20.228Z,9.57
2022-10-21T19:49:51.959Z,9.40
2022-10-21T19:52:23.686Z,9.47
2022-10-21T19:54:55.404Z,9.20
2022-10-21T19:57:27.148Z,8.87
2022-10-21T19:59:58.844Z,9.27
2022-10-21T20:02:30.567Z,8.87
2022-10-21T20:05:02.343Z,8.87
2022-10-21T20:07:38.227Z,9.40
2022-10-21T20:10:10.317Z,8.10
2022-10-21T20:12:42.701Z,9.30
2022-10-21T20:15:14.435Z,9.90
2022-10-21T20:17:46.184Z,9.57
2022-10-21T20:20:18.167Z,9.33
2022-10-21T20:22:49.920Z,9.83
2022-10-21T20:25:21.632Z,9.00
2022-10-21T20:27:53.381Z,10.27
2022-10-21T20:30:25.085Z,9.47
2022-10-21T20:32:56.796Z,9.63
2022-10-21T20:35:28.535Z,10.47
2022-10-21T20:38:00.261Z,9.87
2022-10-21T20:40:32.056Z,10.40
2022-10-21T20:43:03.883Z,10.33
2022-10-21T20:45:35.669Z,9.30
2022-10-21T20:48:07.401Z,9.37
2022-10-21T20:50:39.219Z,9.30
2022-10-21T20:53:11.089Z,9.90
2022-10-21T20:55:43.767Z,9.40
2022-10-21T20:58:15.486Z,9.63
2022-10-21T21:00:47.266Z,10.27
2022-10-21T21:03:19.401Z,9.97
2022-10-21T21:05:51.111Z,9.53
2022-10-21T21:08:22.820Z,10.17
2022-10-21T21:10:59.139Z,9.50
2022-10-21T21:13:30.894Z,10.33
2022-10-21T21:16:07.912Z,10.23
2022-10-21T21:18:42.716Z,10.10
2022-10-21T21:21:16.322Z,10.00
2022-10-21T21:23:48.906Z,9.90
2022-10-21T21:26:21.844Z,9.37
2022-10-21T21:28:54.147Z,9.60
2022-10-21T21:31:27.539Z,10.10
2022-10-21T21:33:59.791Z,9.57
2022-10-21T21:36:31.910Z,9.83
2022-10-21T21:39:05.241Z,9.73
2022-10-21T21:41:38.085Z,9.77
2022-10-21T21:44:09.801Z,9.50
2022-10-21T21:46:41.542Z,9.37
2022-10-21T21:49:13.343Z,9.77
2022-10-21T21:51:45.068Z,9.23
2022-10-21T21:54:16.845Z,10.57
2022-10-21T21:56:50.200Z,10.20
2022-10-21T21:59:23.977Z,9.47
2022-10-21T22:01:55.691Z,10.37
2022-10-21T22:04:27.408Z,10.13
2022-10-21T22:07:02.007Z,10.07
2022-10-21T22:09:34.767Z,9.30
2022-10-21T22:12:06.492Z,9.70
2022-10-21T22:14:38.209Z,9.40
2022-10-21T22:17:09.955Z,10.00
2022-10-21T22:19:41.675Z,9.20
2022-10-21T22:22:13.401Z,10.27
2022-10-21T22:24:45.979Z,10.50
2022-10-21T22:27:18.257Z,10.03
2022-10-21T22:29:50.159Z,10.40
2022-10-21T22:32:21.882Z,10.03
2022-10-21T22:34:53.597Z,10.60
2022-10-21T22:37:25.441Z,10.30
2022-10-21T22:39:57.157Z,10.10
2022-10-21T22:42:28.863Z,10.13
2022-10-21T22:45:00.646Z,10.07
2022-10-21T22:47:32.398Z,10.17
2022-10-21T22:50:04.480Z,9.73
2022-10-21T22:52:36.249Z,9.30
2022-10-21T22:55:08.409Z,10.60
2022-10-21T22:57:40.225Z,10.33
2022-10-21T23:00:12.681Z,9.97
2022-10-21T23:02:44.403Z,10.70
2022-10-21T23:05:16.280Z,10.13
2022-10-21T23:07:48.010Z,11.00
2022-10-21T23:10:19.740Z,10.33
2022-10-21T23:12:51.460Z,10.50
2022-10-21T23:15:23.201Z,10.03
2022-10-21T23:17:54.985Z,10.67
2022-10-21T23:20:26.875Z,10.70
2022-10-21T23:22:58.964Z,10.87
2022-10-21T23:25:30.903Z,9.80
2022-10-21T23:28:03.770Z,10.20
2022-10-21T23:30:36.582Z,9.83
2022-10-21T23:33:08.296Z,9.47
2022-10-21T23:35:40.165Z,10.20
2022-10-21T23:38:11.993Z,10.13
2022-10-21T23:40:43.869Z,9.90
2022-10-21T23:43:15.653Z,9.67
2022-10-21T23:45:48.897Z,10.23
2022-10-21T23:48:20.738Z,10.03
2022-10-21T23:50:52.505Z,10.97
2022-10-21T23:53:24.252Z,10.83
2022-10-21T23:55:56.027Z,9.40
2022-10-21T23:58:27.780Z,10.33
